sensor_id;sensor_type;location;lat;lon;timestamp;temperature;humidity
13205;DHT22;6667;52.634;9.226;2022-08-07T06:39:36;19.70;99.90
13205;DHT22;6667;52.634;9.226;2022-08-07T06:42:07;20.50;1.00
13205;DHT22;6667;52.634;9.226;2022-08-07T06:44:37;20.40;1.00
13205;DHT22;6667;52.634;9.226;2022-08-07T06:47:05;20.40;1.00
13205;DHT22;6667;52.634;9.226;2022-08-07T06:49:32;21.00;1.00
13205;DHT22;6667;52.634;9.226;2022-08-07T06:52:00;21.30;1.00
13205;DHT22;6667;52.634;9.226;2022-08-07T06:54:27;21.60;1.00
13205;DHT22;6667;52.634;9.226;2022-08-07T06:56:56;22.10;1.00
13205;DHT22;6667;52.634;9.226;2022-08-07T06:59:28;22.10;1.00
13205;DHT22;6667;52.634;9.226;2022-08-07T07:01:56;22.20;1.00
13205;DHT22;6667;52.634;9.226;2022-08-07T07:04:24;22.40;1.00
13205;DHT22;6667;52.634;9.226;2022-08-07T07:06:51;22.10;1.00
13205;DHT22;6667;52.634;9.226;2022-08-07T07:09:20;22.40;1.00
13205;DHT22;6667;52.634;9.226;2022-08-07T07:12:02;22.70;1.00
13205;DHT22;6667;52.634;9.226;2022-08-07T07:14:35;22.90;1.00
13205;DHT22;6667;52.634;9.226;2022-08-07T07:17:05;23.50;1.00
13205;DHT22;6667;52.634;9.226;2022-08-07T07:19:39;23.90;1.00
13205;DHT22;6667;52.634;9.226;2022-08-07T07:22:08;24.40;52.40
13205;DHT22;6667;52.634;9.226;2022-08-07T07:24:36;24.40;3.60
13205;DHT22;6667;52.634;9.226;2022-08-07T07:27:06;25.00;1.00
13205;DHT22;6667;52.634;9.226;2022-08-07T07:29:35;24.90;1.00
13205;DHT22;6667;52.634;9.226;2022-08-07T07:32:07;24.80;1.00
13205;DHT22;6667;52.634;9.226;2022-08-07T07:34:36;25.00;77.20
13205;DHT22;6667;52.634;9.226;2022-08-07T07:37:05;24.90;99.90
13205;DHT22;6667;52.634;9.226;2022-08-07T07:39:34;23.90;99.90
13205;DHT22;6667;52.634;9.226;2022-08-07T07:42:05;24.30;99.90
13205;DHT22;6667;52.634;9.226;2022-08-07T07:44:36;24.50;99.90
13205;DHT22;6667;52.634;9.226;2022-08-07T07:47:05;25.30;99.90
13205;DHT22;6667;52.634;9.226;2022-08-07T07:49:34;25.50;99.90
13205;DHT22;6667;52.634;9.226;2022-08-07T07:52:02;25.40;99.90
13205;DHT22;6667;52.634;9.226;2022-08-07T07:54:29;26.50;99.90
13205;DHT22;6667;52.634;9.226;2022-08-07T07:56:58;25.90;73.60
13205;DHT22;6667;52.634;9.226;2022-08-07T07:59:27;25.80;93.50
13205;DHT22;6667;52.634;9.226;2022-08-07T08:01:55;26.20;99.90
13205;DHT22;6667;52.634;9.226;2022-08-07T08:04:27;26.30;99.90
13205;DHT22;6667;52.634;9.226;2022-08-07T08:06:55;26.40;99.90
13205;DHT22;6667;52.634;9.226;2022-08-07T08:09:24;26.20;50.50
13205;DHT22;6667;52.634;9.226;2022-08-07T08:11:51;26.70;3.00
13205;DHT22;6667;52.634;9.226;2022-08-07T08:14:19;27.90;1.00
13205;DHT22;6667;52.634;9.226;2022-08-07T08:16:48;27.60;10.70
13205;DHT22;6667;52.634;9.226;2022-08-07T08:19:21;28.20;1.00
13205;DHT22;6667;52.634;9.226;2022-08-07T08:29:55;28.20;99.90
13205;DHT22;6667;52.634;9.226;2022-08-07T08:32:27;29.70;99.90
13205;DHT22;6667;52.634;9.226;2022-08-07T08:34:57;29.80;89.00
13205;DHT22;6667;52.634;9.226;2022-08-07T08:37:29;29.90;99.90
13205;DHT22;6667;52.634;9.226;2022-08-07T08:39:56;29.90;99.90
13205;DHT22;6667;52.634;9.226;2022-08-07T08:42:26;30.70;1.00
13205;DHT22;6667;52.634;9.226;2022-08-07T08:45:06;30.90;1.00
13205;DHT22;6667;52.634;9.226;2022-08-07T08:47:43;31.00;1.00
13205;DHT22;6667;52.634;9.226;2022-08-07T08:50:19;30.90;89.00
13205;DHT22;6667;52.634;9.226;2022-08-07T08:52:50;31.20;1.00
13205;DHT22;6667;52.634;9.226;2022-08-07T08:55:21;32.10;1.00
13205;DHT22;6667;52.634;9.226;2022-08-07T08:57:57;32.00;99.90
13205;DHT22;6667;52.634;9.226;2022-08-07T09:00:31;31.60;99.90
13205;DHT22;6667;52.634;9.226;2022-08-07T09:03:01;29.60;99.90
13205;DHT22;6667;52.634;9.226;2022-08-07T09:05:36;30.10;99.90
13205;DHT22;6667;52.634;9.226;2022-08-07T09:08:20;30.10;99.90
13205;DHT22;6667;52.634;9.226;2022-08-07T09:10:55;30.50;99.90
13205;DHT22;6667;52.634;9.226;2022-08-07T09:13:34;31.20;99.90
13205;DHT22;6667;52.634;9.226;2022-08-07T09:16:06;30.90;99.90
13205;DHT22;6667;52.634;9.226;2022-08-07T09:18:51;31.70;99.90
13205;DHT22;6667;52.634;9.226;2022-08-07T09:21:31;32.30;99.90
13205;DHT22;6667;52.634;9.226;2022-08-07T09:24:04;32.90;99.90
13205;DHT22;6667;52.634;9.226;2022-08-07T09:26:39;32.20;99.90
13205;DHT22;6667;52.634;9.226;2022-08-07T09:29:19;32.80;99.90
13205;DHT22;6667;52.634;9.226;2022-08-07T09:31:55;32.70;99.90
13205;DHT22;6667;52.634;9.226;2022-08-07T09:34:30;32.60;99.90
13205;DHT22;6667;52.634;9.226;2022-08-07T09:37:06;32.10;99.90
13205;DHT22;6667;52.634;9.226;2022-08-07T09:39:45;32.40;99.90
13205;DHT22;6667;52.634;9.226;2022-08-07T09:42:24;32.80;99.90
13205;DHT22;6667;52.634;9.226;2022-08-07T09:45:04;33.00;99.90
13205;DHT22;6667;52.634;9.226;2022-08-07T09:47:37;31.50;99.90
13205;DHT22;6667;52.634;9.226;2022-08-07T09:50:15;29.90;99.90
13205;DHT22;6667;52.634;9.226;2022-08-07T09:52:47;29.80;99.90
13205;DHT22;6667;52.634;9.226;2022-08-07T09:55:19;31.20;99.90
13205;DHT22;6667;52.634;9.226;2022-08-07T09:58:28;31.70;99.90
13205;DHT22;6667;52.634;9.226;2022-08-07T10:01:05;32.00;99.90
13205;DHT22;6667;52.634;9.226;2022-08-07T10:03:49;32.50;99.90
13205;DHT22;6667;52.634;9.226;2022-08-07T10:06:35;31.40;99.90
13205;DHT22;6667;52.634;9.226;2022-08-07T10:09:17;30.90;99.90
13205;DHT22;6667;52.634;9.226;2022-08-07T10:11:54;31.40;99.90
13205;DHT22;6667;52.634;9.226;2022-08-07T10:14:43;31.90;99.90
13205;DHT22;6667;52.634;9.226;2022-08-07T10:17:24;32.70;99.90
13205;DHT22;6667;52.634;9.226;2022-08-07T10:20:06;30.60;99.90
13205;DHT22;6667;52.634;9.226;2022-08-07T10:23:17;30.40;99.90
13205;DHT22;6667;52.634;9.226;2022-08-07T10:25:56;32.00;99.90
13205;DHT22;6667;52.634;9.226;2022-08-07T10:28:44;32.50;99.90
13205;DHT22;6667;52.634;9.226;2022-08-07T10:31:28;31.80;99.90
13205;DHT22;6667;52.634;9.226;2022-08-07T10:34:07;31.20;99.90
13205;DHT22;6667;52.634;9.226;2022-08-07T10:36:50;30.70;99.90
13205;DHT22;6667;52.634;9.226;2022-08-07T10:39:32;30.90;99.90
13205;DHT22;6667;52.634;9.226;2022-08-07T10:42:10;30.50;99.90
13205;DHT22;6667;52.634;9.226;2022-08-07T10:44:50;30.40;99.90
13205;DHT22;6667;52.634;9.226;2022-08-07T10:47:27;30.60;99.90
13205;DHT22;6667;52.634;9.226;2022-08-07T10:50:01;31.00;99.90
13205;DHT22;6667;52.634;9.226;2022-08-07T10:52:36;31.60;99.90
13205;DHT22;6667;52.634;9.226;2022-08-07T10:55:10;31.40;99.90
13205;DHT22;6667;52.634;9.226;2022-08-07T10:57:42;30.40;99.90
13205;DHT22;6667;52.634;9.226;2022-08-07T11:00:13;30.20;99.90
13205;DHT22;6667;52.634;9.226;2022-08-07T11:02:45;30.30;99.90
13205;DHT22;6667;52.634;9.226;2022-08-07T11:05:29;30.50;99.90
13205;DHT22;6667;52.634;9.226;2022-08-07T11:08:04;30.60;99.90
13205;DHT22;6667;52.634;9.226;2022-08-07T11:10:40;30.20;99.90
13205;DHT22;6667;52.634;9.226;2022-08-07T11:13:12;30.60;99.90
13205;DHT22;6667;52.634;9.226;2022-08-07T11:15:42;30.80;99.90
13205;DHT22;6667;52.634;9.226;2022-08-07T11:18:15;31.20;99.90
13205;DHT22;6667;52.634;9.226;2022-08-07T11:20:48;31.20;99.90
13205;DHT22;6667;52.634;9.226;2022-08-07T11:23:21;30.50;99.90
13205;DHT22;6667;52.634;9.226;2022-08-07T11:25:56;30.10;99.90
13205;DHT22;6667;52.634;9.226;2022-08-07T11:28:27;30.20;99.90
13205;DHT22;6667;52.634;9.226;2022-08-07T11:30:58;30.40;99.90
13205;DHT22;6667;52.634;9.226;2022-08-07T11:33:33;31.10;99.90
13205;DHT22;6667;52.634;9.226;2022-08-07T11:36:12;31.20;99.90
13205;DHT22;6667;52.634;9.226;2022-08-07T11:38:48;31.80;99.90
13205;DHT22;6667;52.634;9.226;2022-08-07T11:41:21;32.00;99.90
13205;DHT22;6667;52.634;9.226;2022-08-07T11:43:56;32.20;99.90
13205;DHT22;6667;52.634;9.226;2022-08-07T11:46:35;31.80;99.90
13205;DHT22;6667;52.634;9.226;2022-08-07T11:49:24;31.80;99.90
13205;DHT22;6667;52.634;9.226;2022-08-07T11:52:07;31.80;99.90
13205;DHT22;6667;52.634;9.226;2022-08-07T11:54:45;31.30;99.90
13205;DHT22;6667;52.634;9.226;2022-08-07T11:57:26;31.60;99.90
13205;DHT22;6667;52.634;9.226;2022-08-07T12:00:04;32.00;99.90
13205;DHT22;6667;52.634;9.226;2022-08-07T12:02:51;32.00;99.90
13205;DHT22;6667;52.634;9.226;2022-08-07T12:05:27;32.20;99.90
13205;DHT22;6667;52.634;9.226;2022-08-07T12:07:59;31.60;99.90
13205;DHT22;6667;52.634;9.226;2022-08-07T12:10:34;31.90;99.90
13205;DHT22;6667;52.634;9.226;2022-08-07T12:13:06;31.30;99.90
13205;DHT22;6667;52.634;9.226;2022-08-07T12:15:42;31.20;99.90
13205;DHT22;6667;52.634;9.226;2022-08-07T12:18:14;30.90;99.90
13205;DHT22;6667;52.634;9.226;2022-08-07T12:20:46;30.90;99.90
13205;DHT22;6667;52.634;9.226;2022-08-07T12:23:34;31.60;1.00
13205;DHT22;6667;52.634;9.226;2022-08-07T12:26:10;32.20;1.00
13205;DHT22;6667;52.634;9.226;2022-08-07T12:28:44;32.20;1.00
13205;DHT22;6667;52.634;9.226;2022-08-07T12:31:18;32.40;1.00
13205;DHT22;6667;52.634;9.226;2022-08-07T12:33:48;32.30;1.00
13205;DHT22;6667;52.634;9.226;2022-08-07T12:36:15;32.60;1.00
13205;DHT22;6667;52.634;9.226;2022-08-07T12:38:43;33.00;1.00
13205;DHT22;6667;52.634;9.226;2022-08-07T12:41:13;33.00;1.00
13205;DHT22;6667;52.634;9.226;2022-08-07T12:43:43;32.50;1.00
13205;DHT22;6667;52.634;9.226;2022-08-07T12:46:21;32.90;1.00
13205;DHT22;6667;52.634;9.226;2022-08-07T12:48:56;32.80;1.00
13205;DHT22;6667;52.634;9.226;2022-08-07T12:51:26;32.20;1.00
13205;DHT22;6667;52.634;9.226;2022-08-07T12:53:58;32.40;1.00
13205;DHT22;6667;52.634;9.226;2022-08-07T12:56:30;32.40;1.00
13205;DHT22;6667;52.634;9.226;2022-08-07T12:59:00;32.10;1.00
13205;DHT22;6667;52.634;9.226;2022-08-07T13:01:41;32.40;1.00
13205;DHT22;6667;52.634;9.226;2022-08-07T13:07:09;31.60;99.90
13205;DHT22;6667;52.634;9.226;2022-08-07T13:09:48;31.20;18.10
13205;DHT22;6667;52.634;9.226;2022-08-07T13:12:25;30.00;1.00
13205;DHT22;6667;52.634;9.226;2022-08-07T13:15:12;30.20;1.00
13205;DHT22;6667;52.634;9.226;2022-08-07T13:17:49;30.30;1.00
13205;DHT22;6667;52.634;9.226;2022-08-07T13:20:24;30.20;1.00
13205;DHT22;6667;52.634;9.226;2022-08-07T13:23:06;29.80;14.50
13205;DHT22;6667;52.634;9.226;2022-08-07T13:25:39;30.10;95.00
13205;DHT22;6667;52.634;9.226;2022-08-07T13:28:11;30.60;99.90
13205;DHT22;6667;52.634;9.226;2022-08-07T13:30:44;31.00;99.90
13205;DHT22;6667;52.634;9.226;2022-08-07T13:33:20;31.30;51.30
13205;DHT22;6667;52.634;9.226;2022-08-07T13:35:55;31.10;31.80
13205;DHT22;6667;52.634;9.226;2022-08-07T13:38:28;31.50;19.60
13205;DHT22;6667;52.634;9.226;2022-08-07T13:41:10;31.10;19.40
13205;DHT22;6667;52.634;9.226;2022-08-07T13:43:41;31.20;1.00
13205;DHT22;6667;52.634;9.226;2022-08-07T13:46:13;30.10;8.00
13205;DHT22;6667;52.634;9.226;2022-08-07T13:48:43;30.20;21.50
13205;DHT22;6667;52.634;9.226;2022-08-07T13:51:12;30.80;18.70
13205;DHT22;6667;52.634;9.226;2022-08-07T13:53:41;30.80;25.30
13205;DHT22;6667;52.634;9.226;2022-08-07T13:56:16;30.60;32.60
13205;DHT22;6667;52.634;9.226;2022-08-07T13:58:45;30.20;22.30
13205;DHT22;6667;52.634;9.226;2022-08-07T14:01:31;30.50;4.90
13205;DHT22;6667;52.634;9.226;2022-08-07T14:04:01;30.80;1.00
13205;DHT22;6667;52.634;9.226;2022-08-07T14:06:34;30.90;7.50
13205;DHT22;6667;52.634;9.226;2022-08-07T14:09:02;30.40;6.40
13205;DHT22;6667;52.634;9.226;2022-08-07T14:11:30;29.90;14.30
13205;DHT22;6667;52.634;9.226;2022-08-07T14:14:03;29.90;22.90
13205;DHT22;6667;52.634;9.226;2022-08-07T14:16:35;28.80;46.20
13205;DHT22;6667;52.634;9.226;2022-08-07T14:19:13;29.10;30.00
13205;DHT22;6667;52.634;9.226;2022-08-07T14:21:43;29.50;20.10
13205;DHT22;6667;52.634;9.226;2022-08-07T14:24:14;29.70;17.30
13205;DHT22;6667;52.634;9.226;2022-08-07T14:26:49;29.70;17.30
13205;DHT22;6667;52.634;9.226;2022-08-07T14:29:19;29.70;13.00
13205;DHT22;6667;52.634;9.226;2022-08-07T14:31:49;30.20;11.50
13205;DHT22;6667;52.634;9.226;2022-08-07T14:34:18;30.00;12.60
13205;DHT22;6667;52.634;9.226;2022-08-07T14:36:46;29.60;17.40
13205;DHT22;6667;52.634;9.226;2022-08-07T14:39:15;29.20;22.70
13205;DHT22;6667;52.634;9.226;2022-08-07T14:41:43;28.90;35.00
13205;DHT22;6667;52.634;9.226;2022-08-07T14:44:15;29.00;49.10
13205;DHT22;6667;52.634;9.226;2022-08-07T14:46:43;28.90;95.50
13205;DHT22;6667;52.634;9.226;2022-08-07T14:49:11;28.50;99.90
13205;DHT22;6667;52.634;9.226;2022-08-07T14:51:41;28.30;99.90
13205;DHT22;6667;52.634;9.226;2022-08-07T14:54:09;28.50;99.90
13205;DHT22;6667;52.634;9.226;2022-08-07T14:56:39;28.40;99.90
13205;DHT22;6667;52.634;9.226;2022-08-07T14:59:09;28.20;99.90
13205;DHT22;6667;52.634;9.226;2022-08-07T15:01:38;27.80;99.90
13205;DHT22;6667;52.634;9.226;2022-08-07T15:04:06;27.90;99.90
13205;DHT22;6667;52.634;9.226;2022-08-07T15:06:37;28.20;99.90
13205;DHT22;6667;52.634;9.226;2022-08-07T15:09:08;28.40;83.50
13205;DHT22;6667;52.634;9.226;2022-08-07T15:11:39;28.10;62.20
13205;DHT22;6667;52.634;9.226;2022-08-07T15:14:10;28.10;38.30
13205;DHT22;6667;52.634;9.226;2022-08-07T15:16:43;28.10;29.40
13205;DHT22;6667;52.634;9.226;2022-08-07T15:19:13;28.00;31.00
13205;DHT22;6667;52.634;9.226;2022-08-07T15:21:45;28.20;29.00
13205;DHT22;6667;52.634;9.226;2022-08-07T15:24:16;27.90;29.80
13205;DHT22;6667;52.634;9.226;2022-08-07T15:26:45;27.60;22.60
13205;DHT22;6667;52.634;9.226;2022-08-07T15:29:16;27.20;10.40
13205;DHT22;6667;52.634;9.226;2022-08-07T15:31:47;27.30;10.10
13205;DHT22;6667;52.634;9.226;2022-08-07T15:34:15;27.10;14.70
13205;DHT22;6667;52.634;9.226;2022-08-07T15:36:43;27.10;17.10
13205;DHT22;6667;52.634;9.226;2022-08-07T15:39:12;27.10;20.60
13205;DHT22;6667;52.634;9.226;2022-08-07T15:41:58;26.90;21.80
13205;DHT22;6667;52.634;9.226;2022-08-07T15:44:28;26.80;14.10
13205;DHT22;6667;52.634;9.226;2022-08-07T15:46:58;27.00;9.70
13205;DHT22;6667;52.634;9.226;2022-08-07T15:49:28;27.00;4.80
13205;DHT22;6667;52.634;9.226;2022-08-07T15:51:57;27.10;4.10
13205;DHT22;6667;52.634;9.226;2022-08-07T15:54:39;27.10;4.90
13205;DHT22;6667;52.634;9.226;2022-08-07T15:57:10;27.00;11.00
13205;DHT22;6667;52.634;9.226;2022-08-07T15:59:38;26.80;13.00
13205;DHT22;6667;52.634;9.226;2022-08-07T16:02:09;27.00;13.20
13205;DHT22;6667;52.634;9.226;2022-08-07T16:04:38;26.70;10.10
13205;DHT22;6667;52.634;9.226;2022-08-07T16:07:10;26.80;10.40
13205;DHT22;6667;52.634;9.226;2022-08-07T16:09:48;26.90;6.40
13205;DHT22;6667;52.634;9.226;2022-08-07T16:12:22;26.90;1.00
13205;DHT22;6667;52.634;9.226;2022-08-07T16:15:12;26.70;1.00
13205;DHT22;6667;52.634;9.226;2022-08-07T16:17:47;26.80;1.00
13205;DHT22;6667;52.634;9.226;2022-08-07T16:20:41;26.60;1.00
13205;DHT22;6667;52.634;9.226;2022-08-07T16:23:17;26.60;1.00
13205;DHT22;6667;52.634;9.226;2022-08-07T16:26:01;26.40;1.00
13205;DHT22;6667;52.634;9.226;2022-08-07T16:28:45;25.90;1.00
13205;DHT22;6667;52.634;9.226;2022-08-07T16:31:24;25.70;1.00
13205;DHT22;6667;52.634;9.226;2022-08-07T16:33:53;25.50;1.00
13205;DHT22;6667;52.634;9.226;2022-08-07T16:36:28;25.70;4.80
13205;DHT22;6667;52.634;9.226;2022-08-07T16:39:14;25.70;5.10
13205;DHT22;6667;52.634;9.226;2022-08-07T16:42:00;25.40;3.20
13205;DHT22;6667;52.634;9.226;2022-08-07T16:44:42;25.40;8.70
13205;DHT22;6667;52.634;9.226;2022-08-07T16:47:24;25.60;6.80
13205;DHT22;6667;52.634;9.226;2022-08-07T16:50:18;25.50;3.60
13205;DHT22;6667;52.634;9.226;2022-08-07T16:53:02;25.80;3.10
13205;DHT22;6667;52.634;9.226;2022-08-07T16:55:38;25.40;3.60
13205;DHT22;6667;52.634;9.226;2022-08-07T16:58:15;25.20;4.50
13205;DHT22;6667;52.634;9.226;2022-08-07T17:00:59;25.10;1.40
13205;DHT22;6667;52.634;9.226;2022-08-07T17:03:28;24.70;9.30
13205;DHT22;6667;52.634;9.226;2022-08-07T17:06:10;24.50;9.70
13205;DHT22;6667;52.634;9.226;2022-08-07T17:08:42;24.50;17.70
13205;DHT22;6667;52.634;9.226;2022-08-07T17:11:21;24.60;22.60
13205;DHT22;6667;52.634;9.226;2022-08-07T17:13:59;24.50;22.60
13205;DHT22;6667;52.634;9.226;2022-08-07T17:16:38;24.40;16.50
13205;DHT22;6667;52.634;9.226;2022-08-07T17:19:16;24.60;19.30
13205;DHT22;6667;52.634;9.226;2022-08-07T17:21:47;24.70;20.50
13205;DHT22;6667;52.634;9.226;2022-08-07T17:24:30;24.50;15.70
13205;DHT22;6667;52.634;9.226;2022-08-07T17:27:04;24.40;18.90
13205;DHT22;6667;52.634;9.226;2022-08-07T17:29:48;24.50;22.60
13205;DHT22;6667;52.634;9.226;2022-08-07T17:32:18;24.60;29.70
13205;DHT22;6667;52.634;9.226;2022-08-07T17:34:48;24.30;26.90
13205;DHT22;6667;52.634;9.226;2022-08-07T17:37:26;24.30;31.90
13205;DHT22;6667;52.634;9.226;2022-08-07T17:39:57;24.40;33.40
13205;DHT22;6667;52.634;9.226;2022-08-07T17:42:36;24.20;30.60
13205;DHT22;6667;52.634;9.226;2022-08-07T17:45:08;24.20;38.60
13205;DHT22;6667;52.634;9.226;2022-08-07T17:47:37;24.00;43.30
13205;DHT22;6667;52.634;9.226;2022-08-07T17:50:11;23.90;49.60
13205;DHT22;6667;52.634;9.226;2022-08-07T17:52:45;24.00;62.40
13205;DHT22;6667;52.634;9.226;2022-08-07T17:55:14;23.90;77.40
13205;DHT22;6667;52.634;9.226;2022-08-07T17:57:49;23.70;93.10
13205;DHT22;6667;52.634;9.226;2022-08-07T18:00:24;23.90;97.90
13205;DHT22;6667;52.634;9.226;2022-08-07T18:02:54;24.00;99.90
13205;DHT22;6667;52.634;9.226;2022-08-07T18:05:30;23.80;99.90
13205;DHT22;6667;52.634;9.226;2022-08-07T18:08:06;23.80;99.90
13205;DHT22;6667;52.634;9.226;2022-08-07T18:10:40;23.60;99.90
13205;DHT22;6667;52.634;9.226;2022-08-07T18:13:13;23.40;99.90
13205;DHT22;6667;52.634;9.226;2022-08-07T18:15:57;23.30;99.90
13205;DHT22;6667;52.634;9.226;2022-08-07T18:18:31;23.30;99.90
13205;DHT22;6667;52.634;9.226;2022-08-07T18:21:03;23.20;99.90
13205;DHT22;6667;52.634;9.226;2022-08-07T18:23:38;23.20;99.90
13205;DHT22;6667;52.634;9.226;2022-08-07T18:26:11;23.10;99.90
13205;DHT22;6667;52.634;9.226;2022-08-07T18:28:53;23.00;99.90
13205;DHT22;6667;52.634;9.226;2022-08-07T18:31:39;22.90;99.90
13205;DHT22;6667;52.634;9.226;2022-08-07T18:34:22;22.90;99.90
13205;DHT22;6667;52.634;9.226;2022-08-07T18:37:04;22.80;99.90
13205;DHT22;6667;52.634;9.226;2022-08-07T18:39:51;22.70;99.90
13205;DHT22;6667;52.634;9.226;2022-08-07T18:42:31;22.70;99.90
13205;DHT22;6667;52.634;9.226;2022-08-07T18:45:08;22.60;99.90
13205;DHT22;6667;52.634;9.226;2022-08-07T18:47:40;22.40;99.90
13205;DHT22;6667;52.634;9.226;2022-08-07T18:50:28;22.40;99.90
13205;DHT22;6667;52.634;9.226;2022-08-07T18:53:05;22.40;99.90
13205;DHT22;6667;52.634;9.226;2022-08-07T18:55:43;22.20;99.90
13205;DHT22;6667;52.634;9.226;2022-08-07T18:58:23;22.20;99.90
13205;DHT22;6667;52.634;9.226;2022-08-07T19:01:02;22.20;99.90
13205;DHT22;6667;52.634;9.226;2022-08-07T20:06:54;20.30;99.90
13205;DHT22;6667;52.634;9.226;2022-08-07T20:09:22;20.10;99.90
13205;DHT22;6667;52.634;9.226;2022-08-07T20:11:52;20.10;99.90
13205;DHT22;6667;52.634;9.226;2022-08-07T20:14:23;20.00;46.90
13205;DHT22;6667;52.634;9.226;2022-08-07T20:16:55;19.90;22.70
13205;DHT22;6667;52.634;9.226;2022-08-07T20:19:24;19.70;11.70
13205;DHT22;6667;52.634;9.226;2022-08-07T20:21:53;19.80;2.40
13205;DHT22;6667;52.634;9.226;2022-08-07T20:24:23;19.70;3.40
13205;DHT22;6667;52.634;9.226;2022-08-07T20:26:52;19.70;1.00
13205;DHT22;6667;52.634;9.226;2022-08-07T20:29:22;19.50;1.00
13205;DHT22;6667;52.634;9.226;2022-08-07T20:31:50;19.60;1.00
13205;DHT22;6667;52.634;9.226;2022-08-07T20:34:19;19.40;1.00
13205;DHT22;6667;52.634;9.226;2022-08-07T20:36:48;19.50;1.00
13205;DHT22;6667;52.634;9.226;2022-08-07T20:39:19;19.30;1.00
13205;DHT22;6667;52.634;9.226;2022-08-07T20:41:47;19.20;1.00
13205;DHT22;6667;52.634;9.226;2022-08-07T20:44:17;19.10;1.00
13205;DHT22;6667;52.634;9.226;2022-08-07T20:46:44;19.00;1.00
13205;DHT22;6667;52.634;9.226;2022-08-07T20:49:14;19.10;1.00
13205;DHT22;6667;52.634;9.226;2022-08-07T20:51:44;19.00;1.00
13205;DHT22;6667;52.634;9.226;2022-08-07T20:54:11;18.80;1.00
13205;DHT22;6667;52.634;9.226;2022-08-07T20:56:41;18.80;1.00
13205;DHT22;6667;52.634;9.226;2022-08-07T20:59:13;18.60;1.00
13205;DHT22;6667;52.634;9.226;2022-08-07T21:01:42;18.60;1.00
13205;DHT22;6667;52.634;9.226;2022-08-07T21:04:11;18.60;1.00
13205;DHT22;6667;52.634;9.226;2022-08-07T21:06:41;18.40;1.00
13205;DHT22;6667;52.634;9.226;2022-08-07T21:09:12;18.50;1.00
13205;DHT22;6667;52.634;9.226;2022-08-07T21:11:40;18.40;1.00
13205;DHT22;6667;52.634;9.226;2022-08-07T21:14:10;18.30;1.00
13205;DHT22;6667;52.634;9.226;2022-08-07T21:16:39;18.30;1.00
13205;DHT22;6667;52.634;9.226;2022-08-07T21:19:10;18.20;1.00
13205;DHT22;6667;52.634;9.226;2022-08-07T21:21:39;18.20;1.00
13205;DHT22;6667;52.634;9.226;2022-08-07T21:24:12;18.00;1.00
13205;DHT22;6667;52.634;9.226;2022-08-07T21:26:44;18.00;1.00
13205;DHT22;6667;52.634;9.226;2022-08-07T21:29:20;18.00;1.00
13205;DHT22;6667;52.634;9.226;2022-08-07T21:31:55;17.90;1.00
13205;DHT22;6667;52.634;9.226;2022-08-07T21:34:30;18.00;1.00
13205;DHT22;6667;52.634;9.226;2022-08-07T21:37:06;17.90;1.00
13205;DHT22;6667;52.634;9.226;2022-08-07T21:39:47;17.90;1.00
13205;DHT22;6667;52.634;9.226;2022-08-07T21:42:30;17.80;1.00
13205;DHT22;6667;52.634;9.226;2022-08-07T21:45:02;17.80;1.00
13205;DHT22;6667;52.634;9.226;2022-08-07T21:47:36;17.60;1.00
13205;DHT22;6667;52.634;9.226;2022-08-07T21:50:10;17.70;1.00
13205;DHT22;6667;52.634;9.226;2022-08-07T21:52:45;17.50;1.00
13205;DHT22;6667;52.634;9.226;2022-08-07T21:55:19;17.70;1.00
13205;DHT22;6667;52.634;9.226;2022-08-07T21:58:03;17.40;1.00
13205;DHT22;6667;52.634;9.226;2022-08-07T22:00:30;17.50;1.00
13205;DHT22;6667;52.634;9.226;2022-08-07T22:03:09;17.40;1.00
13205;DHT22;6667;52.634;9.226;2022-08-07T22:05:42;17.40;1.00
13205;DHT22;6667;52.634;9.226;2022-08-07T22:08:15;17.30;1.00
13205;DHT22;6667;52.634;9.226;2022-08-07T22:10:47;17.30;1.00
13205;DHT22;6667;52.634;9.226;2022-08-07T22:13:15;17.30;1.00
13205;DHT22;6667;52.634;9.226;2022-08-07T22:15:49;17.30;1.00
13205;DHT22;6667;52.634;9.226;2022-08-07T22:18:23;17.10;1.00
13205;DHT22;6667;52.634;9.226;2022-08-07T22:20:53;17.10;1.00
13205;DHT22;6667;52.634;9.226;2022-08-07T22:23:26;17.00;1.00
13205;DHT22;6667;52.634;9.226;2022-08-07T22:26:01;17.00;1.00
13205;DHT22;6667;52.634;9.226;2022-08-07T22:28:36;17.10;1.00
13205;DHT22;6667;52.634;9.226;2022-08-07T22:31:12;17.00;1.00
13205;DHT22;6667;52.634;9.226;2022-08-07T22:33:46;16.80;1.00
13205;DHT22;6667;52.634;9.226;2022-08-07T22:36:21;16.90;1.00
13205;DHT22;6667;52.634;9.226;2022-08-07T22:38:56;16.80;1.00
13205;DHT22;6667;52.634;9.226;2022-08-07T22:41:28;16.80;1.00
13205;DHT22;6667;52.634;9.226;2022-08-07T22:44:02;16.80;1.00
13205;DHT22;6667;52.634;9.226;2022-08-07T22:46:43;16.60;1.00
13205;DHT22;6667;52.634;9.226;2022-08-07T22:49:39;16.60;1.00
13205;DHT22;6667;52.634;9.226;2022-08-07T22:52:19;16.60;4.60
13205;DHT22;6667;52.634;9.226;2022-08-07T22:55:13;16.50;15.40
13205;DHT22;6667;52.634;9.226;2022-08-07T22:58:01;16.40;34.00
13205;DHT22;6667;52.634;9.226;2022-08-07T23:00:35;16.50;28.30
13205;DHT22;6667;52.634;9.226;2022-08-07T23:03:28;16.50;24.00
13205;DHT22;6667;52.634;9.226;2022-08-07T23:06:14;16.20;7.40
13205;DHT22;6667;52.634;9.226;2022-08-07T23:08:57;16.20;19.50
13205;DHT22;6667;52.634;9.226;2022-08-07T23:11:42;16.10;28.30
13205;DHT22;6667;52.634;9.226;2022-08-07T23:14:29;15.90;94.20
13205;DHT22;6667;52.634;9.226;2022-08-07T23:17:14;15.80;99.90
13205;DHT22;6667;52.634;9.226;2022-08-07T23:19:49;15.60;99.90
13205;DHT22;6667;52.634;9.226;2022-08-07T23:22:46;15.60;99.90
13205;DHT22;6667;52.634;9.226;2022-08-07T23:25:23;15.80;99.90
13205;DHT22;6667;52.634;9.226;2022-08-07T23:28:17;15.70;99.90
13205;DHT22;6667;52.634;9.226;2022-08-07T23:30:51;15.70;99.90
13205;DHT22;6667;52.634;9.226;2022-08-07T23:33:52;15.80;99.90
13205;DHT22;6667;52.634;9.226;2022-08-07T23:36:35;15.70;99.90
13205;DHT22;6667;52.634;9.226;2022-08-07T23:39:12;15.70;99.90
13205;DHT22;6667;52.634;9.226;2022-08-07T23:41:51;15.70;99.90
13205;DHT22;6667;52.634;9.226;2022-08-07T23:47:39;15.70;99.90
13205;DHT22;6667;52.634;9.226;2022-08-07T23:50:27;15.40;99.90
13205;DHT22;6667;52.634;9.226;2022-08-07T23:53:04;15.40;99.90
13205;DHT22;6667;52.634;9.226;2022-08-07T23:55:40;15.50;99.90
13205;DHT22;6667;52.634;9.226;2022-08-07T23:58:11;15.50;99.90
